Time;durP1;ratioP1;P1;durP2;ratioP2;P2;SDS_P1;SDS_P2;PMS_P1;PMS_P2;Temp;Humidity;BMP_temperature;BMP_pressure;BME280_temperature;BME280_humidity;BME280_pressure;Samples;Min_cycle;Max_cycle;Signal;HPM_P1;HPM_P2
2021/07/29 00:00:44;;;;;;;15.18;9.38;;;;;;;;;;5022637;28;20025;-70
2021/07/29 00:03:10;;;;;;;15.93;10.30;;;;;;;;;;5023384;28;20030;-70
2021/07/29 00:05:37;;;;;;;20.85;10.85;;;;;;;;;;5014829;28;20022;-70
2021/07/29 00:08:03;;;;;;;12.30;10.38;;;;;;;;;;5013670;28;20036;-70
2021/07/29 00:10:30;;;;;;;14.55;10.00;;;;;;;;;;5023047;28;20037;-71
2021/07/29 00:12:57;;;;;;;12.85;10.35;;;;;;;;;;5024176;28;20064;-70
2021/07/29 00:15:24;;;;;;;13.60;9.60;;;;;;;;;;5023235;28;20033;-70
2021/07/29 00:20:20;;;;;;;17.20;10.45;;;;;;;;;;5015351;28;20057;-70
2021/07/29 00:22:52;;;;;;;17.33;10.82;;;;;;;;;;5018275;28;20021;-71
2021/07/29 00:25:18;;;;;;;15.05;10.15;;;;;;;;;;5017582;28;20060;-70
2021/07/29 00:27:45;;;;;;;17.27;9.73;;;;;;;;;;5021594;28;20033;-71
2021/07/29 00:30:12;;;;;;;13.20;9.30;;;;;;;;;;5021764;28;20033;-71
2021/07/29 00:32:39;;;;;;;18.55;9.68;;;;;;;;;;5018241;28;20041;-70
2021/07/29 00:35:06;;;;;;;13.57;8.85;;;;;;;;;;5020577;28;20021;-70
2021/07/29 00:37:35;;;;;;;13.05;9.18;;;;;;;;;;5013257;28;20042;-70
2021/07/29 00:40:02;;;;;;;13.98;8.15;;;;;;;;;;5016380;28;20018;-70
2021/07/29 00:42:29;;;;;;;15.35;9.82;;;;;;;;;;5015916;28;20037;-71
2021/07/29 00:44:55;;;;;;;18.90;8.68;;;;;;;;;;5017938;28;20041;-71
2021/07/29 00:47:21;;;;;;;12.70;9.50;;;;;;;;;;5023327;28;20037;-70
2021/07/29 00:49:48;;;;;;;16.98;9.57;;;;;;;;;;5017768;28;20033;-70
2021/07/29 00:52:15;;;;;;;12.52;8.82;;;;;;;;;;5014854;28;20124;-70
2021/07/29 00:54:41;;;;;;;9.82;8.02;;;;;;;;;;5020618;28;20034;-70
2021/07/29 00:57:09;;;;;;;12.23;8.73;;;;;;;;;;5021905;28;20036;-72
2021/07/29 00:59:35;;;;;;;13.77;8.95;;;;;;;;;;5018920;28;20584;-69
2021/07/29 01:02:01;;;;;;;18.00;9.13;;;;;;;;;;5017370;28;20512;-69
2021/07/29 01:04:28;;;;;;;17.60;9.52;;;;;;;;;;5021940;28;20473;-70
2021/07/29 01:06:55;;;;;;;14.02;8.43;;;;;;;;;;5014198;28;20616;-72
2021/07/29 01:09:21;;;;;;;16.27;8.43;;;;;;;;;;5017263;28;20022;-71
2021/07/29 01:11:47;;;;;;;10.88;8.55;;;;;;;;;;5022303;28;20025;-70
2021/07/29 01:14:14;;;;;;;13.35;9.43;;;;;;;;;;5017302;28;20091;-72
2021/07/29 01:16:41;;;;;;;14.45;9.23;;;;;;;;;;5021611;28;20033;-69
2021/07/29 01:19:07;;;;;;;12.30;8.63;;;;;;;;;;5017147;28;20056;-69
2021/07/29 01:21:34;;;;;;;14.38;8.52;;;;;;;;;;5014456;28;20112;-70
2021/07/29 01:24:00;;;;;;;13.18;8.18;;;;;;;;;;5014706;28;21901;-70
2021/07/29 01:26:29;;;;;;;13.27;8.88;;;;;;;;;;5018517;28;20051;-69
2021/07/29 01:28:56;;;;;;;18.60;9.70;;;;;;;;;;5021071;28;20091;-70
2021/07/29 01:31:23;;;;;;;12.80;9.15;;;;;;;;;;5016218;28;20035;-70
2021/07/29 01:33:49;;;;;;;13.25;9.30;;;;;;;;;;5013778;28;20042;-70
2021/07/29 01:36:15;;;;;;;18.02;9.30;;;;;;;;;;5020274;28;20091;-69
2021/07/29 01:38:41;;;;;;;19.45;9.57;;;;;;;;;;5018568;28;20537;-69
2021/07/29 01:41:07;;;;;;;11.45;8.90;;;;;;;;;;5020186;28;20497;-69
2021/07/29 01:43:34;;;;;;;13.52;9.02;;;;;;;;;;5014574;28;20029;-72
2021/07/29 01:46:00;;;;;;;13.73;9.15;;;;;;;;;;5024015;28;20034;-69
2021/07/29 01:48:27;;;;;;;16.42;9.38;;;;;;;;;;5025021;28;20077;-72
2021/07/29 01:50:54;;;;;;;14.10;8.82;;;;;;;;;;5019213;28;20034;-73
2021/07/29 01:53:20;;;;;;;14.73;9.43;;;;;;;;;;5026857;28;20037;-72
2021/07/29 01:55:47;;;;;;;14.55;9.55;;;;;;;;;;5023279;28;20030;-69
2021/07/29 01:58:14;;;;;;;16.42;8.00;;;;;;;;;;5021621;28;20052;-69
2021/07/29 02:00:41;;;;;;;16.83;8.32;;;;;;;;;;5017203;28;20474;-72
2021/07/29 02:03:07;;;;;;;18.33;9.30;;;;;;;;;;5016598;28;20378;-70
2021/07/29 02:05:33;;;;;;;10.75;7.82;;;;;;;;;;5021668;28;20109;-69
2021/07/29 02:08:00;;;;;;;14.55;8.98;;;;;;;;;;5026190;28;20029;-70
2021/07/29 02:10:26;;;;;;;13.50;8.35;;;;;;;;;;5024141;28;20029;-69
2021/07/29 02:12:53;;;;;;;11.18;8.27;;;;;;;;;;5018749;28;20034;-69
2021/07/29 02:15:19;;;;;;;11.82;7.57;;;;;;;;;;5018394;28;20759;-70
2021/07/29 02:17:46;;;;;;;13.60;8.38;;;;;;;;;;5022633;28;20481;-72
2021/07/29 02:20:12;;;;;;;13.70;7.90;;;;;;;;;;5023825;28;20053;-72
2021/07/29 02:22:39;;;;;;;15.43;8.18;;;;;;;;;;5017317;28;20040;-72
2021/07/29 02:25:05;;;;;;;15.75;8.18;;;;;;;;;;5023132;28;20022;-71
2021/07/29 02:27:32;;;;;;;14.68;7.57;;;;;;;;;;5022387;28;20030;-69
2021/07/29 02:29:58;;;;;;;16.27;7.97;;;;;;;;;;5021874;28;20030;-72
2021/07/29 02:32:25;;;;;;;18.80;8.15;;;;;;;;;;5024364;28;20033;-69
2021/07/29 02:34:54;;;;;;;12.48;7.53;;;;;;;;;;5023392;28;20562;-72
2021/07/29 02:37:23;;;;;;;14.60;8.10;;;;;;;;;;5015699;28;20541;-73
2021/07/29 02:39:50;;;;;;;14.77;8.27;;;;;;;;;;5020839;28;20083;-69
2021/07/29 02:42:16;;;;;;;13.05;8.48;;;;;;;;;;5015998;28;20022;-72
2021/07/29 02:44:43;;;;;;;21.35;8.18;;;;;;;;;;5014913;28;20382;-73
2021/07/29 02:47:09;;;;;;;16.55;8.48;;;;;;;;;;5019344;28;20026;-70
2021/07/29 02:49:36;;;;;;;15.57;7.60;;;;;;;;;;5023392;28;20025;-69
2021/07/29 02:52:03;;;;;;;11.57;7.85;;;;;;;;;;5018323;28;20017;-69
2021/07/29 02:54:29;;;;;;;12.35;7.78;;;;;;;;;;5011606;28;20085;-72
2021/07/29 02:56:55;;;;;;;15.80;8.45;;;;;;;;;;5015751;28;20351;-72
2021/07/29 02:59:21;;;;;;;14.48;7.88;;;;;;;;;;5020597;28;20531;-72
2021/07/29 03:01:48;;;;;;;17.35;8.43;;;;;;;;;;5020091;28;20036;-70
2021/07/29 03:04:14;;;;;;;12.40;7.95;;;;;;;;;;5008656;28;20026;-72
2021/07/29 03:06:40;;;;;;;14.30;8.23;;;;;;;;;;5019602;28;20027;-71
2021/07/29 03:09:09;;;;;;;15.98;8.52;;;;;;;;;;5022628;28;20035;-71
2021/07/29 03:11:35;;;;;;;18.65;8.73;;;;;;;;;;5022473;28;20036;-70
2021/07/29 03:14:01;;;;;;;12.15;8.88;;;;;;;;;;5022369;28;20041;-70
2021/07/29 03:16:27;;;;;;;16.67;9.35;;;;;;;;;;5022072;28;20025;-70
2021/07/29 03:18:53;;;;;;;13.23;8.55;;;;;;;;;;5020706;28;20040;-71
2021/07/29 03:21:19;;;;;;;19.92;8.88;;;;;;;;;;5022471;28;20131;-71
2021/07/29 03:23:46;;;;;;;16.42;8.48;;;;;;;;;;5021516;28;20040;-72
2021/07/29 03:26:12;;;;;;;18.27;8.43;;;;;;;;;;5022662;28;20033;-72
2021/07/29 03:28:38;;;;;;;16.52;9.70;;;;;;;;;;5022029;28;20083;-71
2021/07/29 03:31:04;;;;;;;15.75;9.32;;;;;;;;;;5022213;28;20413;-71
2021/07/29 03:33:30;;;;;;;14.75;9.15;;;;;;;;;;5020879;28;20107;-72
2021/07/29 03:35:56;;;;;;;14.50;8.63;;;;;;;;;;5020411;28;20025;-71
2021/07/29 03:38:22;;;;;;;13.90;8.55;;;;;;;;;;5021708;28;20029;-71
2021/07/29 03:40:49;;;;;;;19.08;9.07;;;;;;;;;;5021566;28;20088;-71
2021/07/29 03:43:15;;;;;;;19.00;8.75;;;;;;;;;;5022235;28;20025;-71
2021/07/29 03:45:43;;;;;;;13.48;8.70;;;;;;;;;;5022091;28;20060;-71
2021/07/29 03:48:09;;;;;;;15.38;9.13;;;;;;;;;;5020004;28;20025;-71
2021/07/29 03:50:37;;;;;;;13.88;9.13;;;;;;;;;;5022411;28;20805;-71
2021/07/29 03:53:04;;;;;;;10.68;7.65;;;;;;;;;;5021994;28;20069;-71
2021/07/29 03:55:30;;;;;;;14.85;9.20;;;;;;;;;;5022084;28;20024;-72
2021/07/29 03:57:56;;;;;;;18.50;8.65;;;;;;;;;;5021704;28;20026;-71
2021/07/29 04:00:22;;;;;;;13.27;7.88;;;;;;;;;;5020671;28;20059;-72
2021/07/29 04:02:48;;;;;;;13.82;8.55;;;;;;;;;;5020087;28;20523;-71
2021/07/29 04:05:14;;;;;;;10.85;8.73;;;;;;;;;;5021913;28;20029;-71
2021/07/29 04:07:41;;;;;;;13.30;8.38;;;;;;;;;;5021909;28;20694;-71
2021/07/29 04:10:07;;;;;;;13.52;8.82;;;;;;;;;;5021528;28;20614;-71
2021/07/29 04:12:33;;;;;;;19.17;9.05;;;;;;;;;;5021160;28;20042;-71
2021/07/29 04:14:59;;;;;;;17.30;8.77;;;;;;;;;;5015252;28;20041;-71
2021/07/29 04:17:26;;;;;;;15.57;8.30;;;;;;;;;;5022391;28;20359;-71
2021/07/29 04:19:54;;;;;;;19.17;8.68;;;;;;;;;;5021926;28;20049;-71
2021/07/29 04:22:20;;;;;;;14.32;8.40;;;;;;;;;;5020061;28;20029;-71
2021/07/29 04:24:46;;;;;;;18.63;9.20;;;;;;;;;;5021331;28;20551;-71
2021/07/29 04:27:12;;;;;;;13.00;8.02;;;;;;;;;;5021267;28;20068;-71
2021/07/29 04:29:38;;;;;;;16.80;8.55;;;;;;;;;;5021520;28;20033;-72
2021/07/29 04:32:05;;;;;;;14.18;7.93;;;;;;;;;;5020931;28;20108;-72
2021/07/29 04:34:32;;;;;;;34.28;9.43;;;;;;;;;;5019695;28;20037;-69
2021/07/29 04:36:59;;;;;;;18.73;8.52;;;;;;;;;;5021049;28;20030;-70
2021/07/29 04:39:27;;;;;;;18.35;8.23;;;;;;;;;;5020979;28;20117;-72
2021/07/29 04:41:53;;;;;;;14.13;8.10;;;;;;;;;;5021399;28;20036;-71
2021/07/29 04:44:20;;;;;;;14.77;8.50;;;;;;;;;;5019433;28;20496;-70
2021/07/29 04:46:46;;;;;;;12.73;7.75;;;;;;;;;;5021235;28;20029;-70
2021/07/29 04:49:12;;;;;;;15.73;8.40;;;;;;;;;;5020884;28;20203;-71
2021/07/29 04:51:39;;;;;;;11.10;7.95;;;;;;;;;;5019206;28;20095;-71
2021/07/29 04:54:06;;;;;;;14.50;8.60;;;;;;;;;;5020617;28;20040;-70
2021/07/29 04:56:32;;;;;;;11.95;9.68;;;;;;;;;;5021206;28;20024;-70
2021/07/29 04:58:59;;;;;;;15.52;11.13;;;;;;;;;;5021090;28;20431;-70
2021/07/29 05:01:25;;;;;;;13.43;10.73;;;;;;;;;;5019490;28;20029;-70
2021/07/29 05:03:52;;;;;;;15.85;10.50;;;;;;;;;;5021000;28;20029;-70
2021/07/29 05:06:18;;;;;;;11.63;10.35;;;;;;;;;;5020995;28;20037;-71
2021/07/29 05:08:44;;;;;;;18.45;12.32;;;;;;;;;;5020862;28;20035;-70
2021/07/29 05:11:11;;;;;;;18.45;11.38;;;;;;;;;;5021562;28;20109;-70
2021/07/29 05:13:37;;;;;;;14.63;11.60;;;;;;;;;;5021135;28;20424;-69
2021/07/29 05:16:04;;;;;;;18.17;10.60;;;;;;;;;;5024916;28;20022;-69
2021/07/29 05:18:30;;;;;;;10.77;9.57;;;;;;;;;;5024766;28;20097;-69
2021/07/29 05:21:00;;;;;;;16.70;10.95;;;;;;;;;;5022409;28;20071;-71
2021/07/29 05:23:26;;;;;;;14.75;10.40;;;;;;;;;;5018497;28;20041;-72
2021/07/29 05:25:52;;;;;;;11.82;10.32;;;;;;;;;;5024352;28;20021;-71
2021/07/29 05:28:18;;;;;;;12.95;9.48;;;;;;;;;;5022245;28;20044;-71
2021/07/29 05:30:44;;;;;;;14.55;10.75;;;;;;;;;;5022794;28;20385;-72
2021/07/29 05:33:11;;;;;;;17.67;11.73;;;;;;;;;;5022561;28;20128;-72
2021/07/29 05:35:37;;;;;;;14.45;10.50;;;;;;;;;;5024088;28;20559;-70
2021/07/29 05:38:03;;;;;;;17.23;10.63;;;;;;;;;;5022808;28;20029;-73
2021/07/29 05:40:29;;;;;;;15.60;10.57;;;;;;;;;;5021401;28;20021;-73
2021/07/29 05:42:55;;;;;;;18.33;10.82;;;;;;;;;;5023408;28;20033;-72
2021/07/29 05:45:21;;;;;;;15.02;10.02;;;;;;;;;;5024553;28;20076;-72
2021/07/29 05:47:48;;;;;;;14.32;9.63;;;;;;;;;;5024001;28;20124;-72
2021/07/29 05:50:14;;;;;;;14.52;8.98;;;;;;;;;;5022505;28;20367;-72
2021/07/29 05:52:40;;;;;;;13.80;9.60;;;;;;;;;;5023879;28;20397;-72
2021/07/29 05:55:06;;;;;;;21.48;11.18;;;;;;;;;;5024179;28;20539;-72
2021/07/29 05:57:35;;;;;;;15.50;10.13;;;;;;;;;;5024237;28;20444;-72
2021/07/29 06:00:01;;;;;;;16.95;10.30;;;;;;;;;;5023603;28;20021;-72
2021/07/29 06:02:28;;;;;;;15.63;9.55;;;;;;;;;;5023471;28;20473;-72
2021/07/29 06:04:54;;;;;;;14.77;9.13;;;;;;;;;;5021533;28;20026;-72
2021/07/29 06:07:21;;;;;;;13.98;9.23;;;;;;;;;;5021323;28;20492;-72
2021/07/29 06:09:47;;;;;;;18.25;9.90;;;;;;;;;;5022331;28;20505;-72
2021/07/29 06:12:14;;;;;;;15.60;9.00;;;;;;;;;;5022324;28;20017;-72
2021/07/29 06:14:40;;;;;;;14.80;9.15;;;;;;;;;;5022112;28;20037;-72
2021/07/29 06:17:06;;;;;;;19.40;10.52;;;;;;;;;;5020485;28;20018;-72
2021/07/29 06:19:32;;;;;;;14.93;8.90;;;;;;;;;;5022525;28;20132;-72
2021/07/29 06:21:59;;;;;;;16.73;10.25;;;;;;;;;;5023543;28;20025;-72
2021/07/29 06:24:26;;;;;;;18.27;9.93;;;;;;;;;;5023187;28;20021;-72
2021/07/29 06:26:53;;;;;;;17.52;10.52;;;;;;;;;;5021798;28;20130;-72
2021/07/29 06:29:19;;;;;;;12.98;9.82;;;;;;;;;;5023417;28;20055;-72
2021/07/29 06:31:45;;;;;;;22.75;11.18;;;;;;;;;;5023856;28;20072;-72
2021/07/29 06:34:11;;;;;;;20.10;10.25;;;;;;;;;;5023270;28;20037;-72
2021/07/29 06:36:37;;;;;;;17.13;10.40;;;;;;;;;;5023382;28;20049;-72
2021/07/29 06:39:04;;;;;;;14.70;10.18;;;;;;;;;;5023260;28;20022;-72
2021/07/29 06:41:30;;;;;;;18.05;10.85;;;;;;;;;;5021449;28;20048;-72
2021/07/29 06:43:57;;;;;;;17.02;10.07;;;;;;;;;;5023407;28;20045;-72
2021/07/29 06:46:23;;;;;;;20.33;11.55;;;;;;;;;;5023106;28;20025;-72
2021/07/29 06:48:50;;;;;;;24.92;12.18;;;;;;;;;;5022988;28;20564;-72
2021/07/29 06:51:16;;;;;;;17.27;10.25;;;;;;;;;;5022812;28;20486;-72
2021/07/29 06:53:42;;;;;;;27.85;11.82;;;;;;;;;;5021396;28;20033;-72
2021/07/29 06:56:08;;;;;;;25.60;12.10;;;;;;;;;;5022794;28;20033;-72
2021/07/29 06:58:35;;;;;;;22.60;12.07;;;;;;;;;;5022026;28;20258;-72
2021/07/29 07:01:02;;;;;;;19.98;11.32;;;;;;;;;;5022750;28;20021;-72
2021/07/29 07:03:29;;;;;;;23.42;12.32;;;;;;;;;;5022627;28;20033;-72
2021/07/29 07:06:01;;;;;;;22.73;11.30;;;;;;;;;;5021915;28;20359;-72
2021/07/29 07:08:27;;;;;;;17.27;11.02;;;;;;;;;;5022874;28;20064;-72
2021/07/29 07:10:53;;;;;;;16.60;11.07;;;;;;;;;;5023005;28;20029;-72
2021/07/29 07:13:20;;;;;;;22.00;11.73;;;;;;;;;;5022212;28;20048;-72
2021/07/29 07:15:46;;;;;;;18.92;11.02;;;;;;;;;;5022747;28;20075;-72
2021/07/29 07:18:12;;;;;;;19.02;10.93;;;;;;;;;;5022928;28;20074;-72
2021/07/29 07:20:38;;;;;;;20.77;10.38;;;;;;;;;;5020919;28;20161;-72
2021/07/29 07:23:04;;;;;;;16.58;9.93;;;;;;;;;;5022792;28;20436;-73
2021/07/29 07:25:31;;;;;;;15.70;10.00;;;;;;;;;;5023105;28;20024;-72
2021/07/29 07:27:57;;;;;;;17.95;9.82;;;;;;;;;;5022132;28;20029;-72
2021/07/29 07:30:23;;;;;;;15.93;9.75;;;;;;;;;;5022010;28;20021;-73
2021/07/29 07:32:49;;;;;;;17.33;9.35;;;;;;;;;;5021139;28;20041;-72
2021/07/29 07:35:15;;;;;;;12.57;8.98;;;;;;;;;;5021909;28;20053;-72
2021/07/29 07:37:42;;;;;;;12.60;8.40;;;;;;;;;;5022787;28;20044;-72
2021/07/29 07:40:09;;;;;;;13.73;8.82;;;;;;;;;;5022039;28;20313;-72
2021/07/29 07:42:35;;;;;;;11.73;9.05;;;;;;;;;;5019181;28;20030;-72
2021/07/29 07:45:01;;;;;;;13.50;9.23;;;;;;;;;;5022209;28;20034;-72
2021/07/29 07:47:29;;;;;;;15.98;8.13;;;;;;;;;;5022203;28;20506;-72
2021/07/29 07:49:55;;;;;;;18.10;9.23;;;;;;;;;;5020564;28;20025;-72
2021/07/29 07:52:22;;;;;;;14.02;7.93;;;;;;;;;;5022221;28;20032;-72
2021/07/29 07:54:48;;;;;;;17.27;8.68;;;;;;;;;;5022155;28;20380;-72
2021/07/29 07:57:14;;;;;;;14.18;8.82;;;;;;;;;;5022379;28;20548;-72
2021/07/29 07:59:40;;;;;;;16.20;9.10;;;;;;;;;;5021848;28;20236;-72
2021/07/29 08:02:07;;;;;;;20.60;10.07;;;;;;;;;;5022450;28;20540;-72
2021/07/29 08:04:33;;;;;;;23.02;9.73;;;;;;;;;;5020385;28;20389;-72
2021/07/29 08:06:59;;;;;;;17.90;9.27;;;;;;;;;;5021769;28;20045;-72
2021/07/29 08:09:25;;;;;;;14.82;8.73;;;;;;;;;;5021687;28;20029;-72
2021/07/29 08:11:52;;;;;;;17.58;9.32;;;;;;;;;;5020360;28;20363;-72
2021/07/29 08:14:18;;;;;;;16.92;8.65;;;;;;;;;;5021659;28;20044;-72
2021/07/29 08:16:44;;;;;;;13.90;7.95;;;;;;;;;;5021480;28;20021;-72
2021/07/29 08:19:11;;;;;;;12.82;7.30;;;;;;;;;;5021760;28;20032;-72
2021/07/29 08:21:37;;;;;;;15.25;8.25;;;;;;;;;;5021471;28;20055;-72
2021/07/29 08:24:04;;;;;;;14.85;7.38;;;;;;;;;;5020383;28;20430;-72
2021/07/29 08:26:30;;;;;;;13.43;8.25;;;;;;;;;;5021555;28;20389;-72
2021/07/29 08:28:57;;;;;;;18.98;9.15;;;;;;;;;;5021247;28;20021;-73
2021/07/29 08:31:23;;;;;;;12.77;8.35;;;;;;;;;;5021608;28;20045;-72
2021/07/29 08:33:50;;;;;;;12.80;8.20;;;;;;;;;;5020945;28;20387;-72
2021/07/29 08:36:17;;;;;;;18.05;9.25;;;;;;;;;;5020492;28;20374;-72
2021/07/29 08:38:44;;;;;;;11.85;8.07;;;;;;;;;;5019882;28;20025;-72
2021/07/29 08:41:10;;;;;;;14.85;8.30;;;;;;;;;;5021173;28;20462;-72
2021/07/29 08:43:37;;;;;;;15.80;8.70;;;;;;;;;;5021667;28;20064;-72
2021/07/29 08:46:04;;;;;;;14.93;8.10;;;;;;;;;;5023007;28;20483;-72
2021/07/29 08:48:32;;;;;;;14.05;8.55;;;;;;;;;;5026366;28;20021;-72
2021/07/29 08:50:58;;;;;;;14.45;8.13;;;;;;;;;;5027932;28;20821;-72
2021/07/29 08:53:24;;;;;;;13.05;8.27;;;;;;;;;;5027688;28;20041;-72
2021/07/29 08:55:51;;;;;;;14.70;8.77;;;;;;;;;;5027658;28;20496;-72
2021/07/29 08:58:18;;;;;;;14.60;8.48;;;;;;;;;;5027329;28;20040;-72
2021/07/29 09:01:00;;;;;;;12.20;8.43;;;;;;;;;;5026127;28;20112;-72
2021/07/29 09:03:27;;;;;;;11.00;8.23;;;;;;;;;;5027653;28;20397;-72
2021/07/29 09:06:05;;;;;;;13.05;7.95;;;;;;;;;;5028047;28;20018;-72
2021/07/29 09:08:51;;;;;;;15.88;9.35;;;;;;;;;;5027549;28;20025;-72
2021/07/29 09:11:39;;;;;;;12.95;8.38;;;;;;;;;;5026556;28;20960;-72
2021/07/29 09:14:07;;;;;;;11.38;8.68;;;;;;;;;;5027785;28;20043;-72
2021/07/29 09:16:37;;;;;;;12.77;8.50;;;;;;;;;;5027671;28;20021;-72
2021/07/29 09:19:03;;;;;;;17.70;8.65;;;;;;;;;;5027501;28;20482;-72
2021/07/29 09:21:30;;;;;;;15.23;8.48;;;;;;;;;;5026450;28;20467;-72
2021/07/29 09:24:06;;;;;;;11.68;9.07;;;;;;;;;;5027382;28;20029;-72
2021/07/29 09:26:50;;;;;;;14.05;8.77;;;;;;;;;;5027366;28;20243;-73
2021/07/29 09:29:21;;;;;;;12.88;9.05;;;;;;;;;;5027917;28;20378;-72
2021/07/29 09:31:47;;;;;;;11.00;8.00;;;;;;;;;;5026241;28;20057;-73
2021/07/29 09:34:14;;;;;;;15.95;10.10;;;;;;;;;;5027231;28;20029;-72
2021/07/29 09:36:40;;;;;;;12.00;9.00;;;;;;;;;;5027400;28;20366;-72
2021/07/29 09:39:22;;;;;;;8.98;8.07;;;;;;;;;;5025571;28;20470;-72
2021/07/29 09:41:58;;;;;;;10.98;8.63;;;;;;;;;;5015795;28;20029;-72
2021/07/29 09:44:50;;;;;;;15.68;8.88;;;;;;;;;;5026025;28;20035;-72
2021/07/29 09:47:20;;;;;;;17.23;9.48;;;;;;;;;;5023877;28;20052;-72
2021/07/29 09:49:46;;;;;;;17.15;9.32;;;;;;;;;;5027206;28;20022;-72
2021/07/29 09:52:13;;;;;;;14.35;10.07;;;;;;;;;;5027295;28;20474;-72
2021/07/29 09:54:41;;;;;;;28.65;10.23;;;;;;;;;;5027794;28;20049;-72
2021/07/29 09:57:08;;;;;;;12.85;9.55;;;;;;;;;;5027265;28;20025;-72
2021/07/29 09:59:34;;;;;;;11.82;9.38;;;;;;;;;;5023450;28;20021;-72
2021/07/29 10:02:04;;;;;;;20.83;10.18;;;;;;;;;;5022084;28;20075;-74
2021/07/29 10:04:40;;;;;;;11.90;9.70;;;;;;;;;;5023956;28;20033;-73
2021/07/29 10:07:11;;;;;;;15.25;9.57;;;;;;;;;;5024216;28;20037;-73
2021/07/29 10:09:44;;;;;;;11.98;8.75;;;;;;;;;;5024294;28;20025;-73
2021/07/29 10:12:10;;;;;;;12.95;8.82;;;;;;;;;;5024144;28;20013;-73
2021/07/29 10:14:53;;;;;;;15.05;9.55;;;;;;;;;;5022817;28;20029;-73
2021/07/29 10:17:43;;;;;;;11.70;8.98;;;;;;;;;;5023700;28;20497;-73
2021/07/29 10:20:15;;;;;;;12.35;9.07;;;;;;;;;;5017606;28;20923;-73
2021/07/29 10:22:42;;;;;;;12.35;9.20;;;;;;;;;;5022672;28;20083;-73
2021/07/29 10:25:09;;;;;;;11.13;8.85;;;;;;;;;;5023502;28;20025;-73
2021/07/29 10:27:35;;;;;;;12.27;8.70;;;;;;;;;;5023717;28;20087;-73
2021/07/29 10:30:20;;;;;;;11.02;8.90;;;;;;;;;;5023680;28;20031;-73
2021/07/29 10:32:47;;;;;;;15.02;8.98;;;;;;;;;;5023651;28;20512;-73
2021/07/29 10:35:32;;;;;;;10.70;9.45;;;;;;;;;;5021273;28;20033;-73
2021/07/29 10:37:58;;;;;;;12.60;8.75;;;;;;;;;;5023610;28;20070;-73
2021/07/29 10:40:35;;;;;;;11.00;8.98;;;;;;;;;;5023465;28;20057;-73
2021/07/29 10:43:19;;;;;;;15.25;9.63;;;;;;;;;;5023138;28;20260;-73
2021/07/29 10:45:51;;;;;;;16.67;9.45;;;;;;;;;;5022057;28;20035;-73
2021/07/29 10:48:36;;;;;;;14.98;8.63;;;;;;;;;;5023744;28;20022;-73
2021/07/29 10:51:18;;;;;;;13.50;8.70;;;;;;;;;;5023119;28;20120;-73
2021/07/29 10:53:46;;;;;;;13.20;9.32;;;;;;;;;;5021951;28;20486;-73
2021/07/29 10:56:13;;;;;;;14.30;9.65;;;;;;;;;;5023067;28;20109;-72
2021/07/29 10:58:43;;;;;;;12.50;8.50;;;;;;;;;;5023548;28;20476;-73
2021/07/29 11:01:10;;;;;;;11.07;9.07;;;;;;;;;;5023145;28;20033;-73
2021/07/29 11:03:44;;;;;;;13.90;9.65;;;;;;;;;;5022839;28;20017;-73
2021/07/29 11:06:13;;;;;;;13.93;9.45;;;;;;;;;;5023057;28;20068;-72
2021/07/29 11:08:40;;;;;;;16.75;9.52;;;;;;;;;;5020741;28;20539;-73
2021/07/29 11:11:07;;;;;;;12.45;8.82;;;;;;;;;;5022603;28;20614;-73
2021/07/29 11:13:35;;;;;;;11.85;9.07;;;;;;;;;;5020141;28;20421;-74
2021/07/29 11:16:02;;;;;;;14.27;9.85;;;;;;;;;;5019800;28;20025;-74
2021/07/29 11:18:28;;;;;;;18.30;9.20;;;;;;;;;;5022075;28;20030;-73
2021/07/29 11:20:54;;;;;;;9.38;8.45;;;;;;;;;;5022218;28;20045;-74
2021/07/29 11:23:32;;;;;;;13.60;8.27;;;;;;;;;;5022599;28;20029;-74
2021/07/29 11:25:59;;;;;;;12.43;8.88;;;;;;;;;;5019879;28;20478;-74
2021/07/29 11:28:25;;;;;;;13.23;9.18;;;;;;;;;;5021712;28;20025;-74
2021/07/29 11:30:52;;;;;;;15.32;8.73;;;;;;;;;;5022136;28;20021;-74
2021/07/29 11:33:25;;;;;;;12.45;8.75;;;;;;;;;;5021135;28;20640;-73
2021/07/29 11:35:52;;;;;;;11.65;8.55;;;;;;;;;;5014263;28;20037;-73
2021/07/29 11:38:22;;;;;;;11.25;8.27;;;;;;;;;;5020923;28;20082;-73
2021/07/29 11:40:58;;;;;;;10.48;7.97;;;;;;;;;;5010869;28;20030;-73
2021/07/29 11:43:25;;;;;;;15.88;8.95;;;;;;;;;;5014207;28;20041;-73
2021/07/29 11:45:51;;;;;;;20.45;8.93;;;;;;;;;;5013279;28;20597;-73
2021/07/29 11:48:22;;;;;;;11.45;8.27;;;;;;;;;;5011135;28;20468;-73
2021/07/29 11:50:48;;;;;;;13.20;8.48;;;;;;;;;;5008131;28;20025;-73
2021/07/29 11:53:15;;;;;;;10.90;9.00;;;;;;;;;;5010092;28;20037;-73
2021/07/29 11:55:41;;;;;;;8.88;7.97;;;;;;;;;;5013100;28;20498;-74
2021/07/29 11:58:13;;;;;;;11.23;8.52;;;;;;;;;;5010351;28;20036;-74
2021/07/29 12:00:39;;;;;;;11.60;8.73;;;;;;;;;;5010895;28;20021;-73
2021/07/29 12:03:06;;;;;;;11.63;7.85;;;;;;;;;;5009786;28;20128;-73
2021/07/29 12:05:33;;;;;;;15.30;8.32;;;;;;;;;;5010312;28;20032;-73
2021/07/29 12:08:00;;;;;;;11.93;8.68;;;;;;;;;;5015878;28;20029;-73
2021/07/29 12:10:28;;;;;;;14.50;8.93;;;;;;;;;;5011928;28;20021;-72
2021/07/29 12:12:54;;;;;;;13.82;8.45;;;;;;;;;;5008192;28;20417;-72
2021/07/29 12:15:21;;;;;;;9.55;7.95;;;;;;;;;;5011905;28;20052;-73
2021/07/29 12:17:47;;;;;;;15.80;9.05;;;;;;;;;;5007677;28;20026;-74
2021/07/29 12:20:14;;;;;;;23.83;9.40;;;;;;;;;;5016334;28;20054;-73
2021/07/29 12:22:42;;;;;;;13.05;8.10;;;;;;;;;;5015474;28;20027;-72
2021/07/29 12:25:11;;;;;;;13.00;8.70;;;;;;;;;;5012770;28;20025;-73
2021/07/29 12:27:44;;;;;;;12.65;8.65;;;;;;;;;;5017859;28;20041;-72
2021/07/29 12:30:29;;;;;;;11.98;8.18;;;;;;;;;;5013822;28;20108;-72
2021/07/29 12:33:08;;;;;;;13.05;8.10;;;;;;;;;;5010910;28;20639;-72
2021/07/29 12:35:35;;;;;;;11.73;8.23;;;;;;;;;;5015397;28;20048;-74
2021/07/29 12:38:01;;;;;;;11.23;8.05;;;;;;;;;;5009745;28;20029;-72
2021/07/29 12:40:31;;;;;;;18.63;7.88;;;;;;;;;;5017714;28;20030;-71
2021/07/29 12:43:16;;;;;;;13.10;8.00;;;;;;;;;;5012619;28;20029;-72
2021/07/29 12:45:49;;;;;;;10.25;7.80;;;;;;;;;;5005347;28;20084;-72
2021/07/29 12:48:15;;;;;;;8.82;7.82;;;;;;;;;;5019252;28;20036;-72
2021/07/29 12:50:41;;;;;;;13.27;9.00;;;;;;;;;;5020253;28;20639;-73
2021/07/29 12:53:14;;;;;;;10.98;8.77;;;;;;;;;;5016001;28;20045;-72
2021/07/29 12:55:42;;;;;;;16.17;8.60;;;;;;;;;;5010375;28;20161;-72
2021/07/29 12:58:08;;;;;;;14.52;7.72;;;;;;;;;;5012238;28;20389;-71
2021/07/29 13:00:42;;;;;;;13.80;8.63;;;;;;;;;;5012679;28;20057;-72
2021/07/29 13:03:30;;;;;;;14.25;8.10;;;;;;;;;;5012226;28;20022;-72
2021/07/29 13:05:57;;;;;;;15.93;8.48;;;;;;;;;;5020616;28;20029;-72
2021/07/29 13:08:24;;;;;;;12.55;7.57;;;;;;;;;;5019521;28;20013;-72
2021/07/29 13:10:50;;;;;;;14.13;7.72;;;;;;;;;;5020849;28;20033;-72
2021/07/29 13:13:19;;;;;;;9.85;7.68;;;;;;;;;;5020716;28;20045;-72
2021/07/29 13:15:45;;;;;;;11.00;7.43;;;;;;;;;;5020723;28;20044;-72
2021/07/29 13:18:11;;;;;;;12.93;8.18;;;;;;;;;;5020999;28;20607;-73
2021/07/29 13:20:38;;;;;;;9.43;7.05;;;;;;;;;;5019151;28;20069;-73
2021/07/29 13:23:04;;;;;;;11.57;8.38;;;;;;;;;;5019912;28;20029;-72
2021/07/29 13:25:30;;;;;;;11.07;8.10;;;;;;;;;;5020313;28;20017;-72
2021/07/29 13:27:56;;;;;;;12.80;7.95;;;;;;;;;;5020842;28;20057;-72
2021/07/29 13:30:22;;;;;;;13.40;7.68;;;;;;;;;;5020385;28;20053;-72
2021/07/29 13:32:48;;;;;;;9.63;7.55;;;;;;;;;;5020624;28;20087;-73
2021/07/29 13:35:14;;;;;;;11.95;8.00;;;;;;;;;;5024268;28;20033;-73
2021/07/29 13:37:41;;;;;;;14.43;7.35;;;;;;;;;;5024377;28;20025;-72
2021/07/29 13:40:07;;;;;;;12.77;8.15;;;;;;;;;;5024592;28;20052;-73
2021/07/29 13:42:33;;;;;;;13.80;8.38;;;;;;;;;;5021657;28;20030;-72
2021/07/29 13:45:21;;;;;;;10.25;7.68;;;;;;;;;;5023882;28;20488;-72
2021/07/29 13:47:48;;;;;;;12.50;7.72;;;;;;;;;;5024437;28;20057;-73
2021/07/29 13:50:18;;;;;;;10.75;7.00;;;;;;;;;;5023718;28;20025;-72
2021/07/29 13:52:45;;;;;;;11.18;7.82;;;;;;;;;;5022645;28;20033;-72
2021/07/29 13:55:11;;;;;;;12.63;8.07;;;;;;;;;;5024183;28;20033;-73
2021/07/29 13:57:38;;;;;;;11.70;8.10;;;;;;;;;;5024143;28;20314;-73
2021/07/29 14:00:05;;;;;;;11.82;7.72;;;;;;;;;;5023728;28;20049;-73
2021/07/29 14:02:33;;;;;;;11.05;7.57;;;;;;;;;;5024091;28;20032;-72
2021/07/29 14:05:00;;;;;;;13.93;7.68;;;;;;;;;;5022182;28;20138;-72
2021/07/29 14:07:26;;;;;;;13.02;7.50;;;;;;;;;;5024725;28;20118;-72
2021/07/29 14:09:52;;;;;;;13.50;8.05;;;;;;;;;;5023303;28;20577;-73
2021/07/29 14:12:19;;;;;;;16.63;8.43;;;;;;;;;;5023963;28;20444;-72
2021/07/29 14:14:46;;;;;;;11.73;8.35;;;;;;;;;;5022417;28;20385;-72
2021/07/29 14:17:17;;;;;;;17.13;8.60;;;;;;;;;;5023421;28;20028;-73
2021/07/29 14:25:17;;;;;;;10.73;7.22;;;;;;;;;;5021959;28;20144;-72
2021/07/29 14:27:43;;;;;;;19.02;9.52;;;;;;;;;;5023689;28;20492;-74
2021/07/29 14:30:09;;;;;;;13.82;8.48;;;;;;;;;;5022715;28;20048;-73
2021/07/29 14:32:36;;;;;;;15.25;8.05;;;;;;;;;;5023116;28;20018;-73
2021/07/29 14:35:02;;;;;;;17.83;8.48;;;;;;;;;;5023422;28;20044;-74
2021/07/29 14:37:28;;;;;;;13.30;8.07;;;;;;;;;;5023553;28;20060;-73
2021/07/29 14:39:56;;;;;;;10.90;7.82;;;;;;;;;;5021533;28;20028;-72